Time;durP1;ratioP1;P1;durP2;ratioP2;P2;SDS_P1;SDS_P2;PMS_P1;PMS_P2;Temp;Humidity;BMP_temperature;BMP_pressure;BME280_temperature;BME280_humidity;BME280_pressure;Samples;Min_cycle;Max_cycle;Signal;HPM_P1;HPM_P2
2023/11/03 00:00:54;;;;;;;1.55;0.75;;;9.90;99.90;;;;;;4988493;28;20097;-81
2023/11/03 00:03:19;;;;;;;0.93;0.88;;;9.90;99.90;;;;;;4992805;28;20010;-81
2023/11/03 00:05:45;;;;;;;0.88;0.70;;;9.90;99.90;;;;;;4991770;28;20081;-81
2023/11/03 00:08:11;;;;;;;4.47;1.13;;;9.90;99.90;;;;;;4990176;28;20022;-82
2023/11/03 00:10:38;;;;;;;1.48;0.70;;;9.90;99.90;;;;;;4996854;28;20786;-81
2023/11/03 00:13:04;;;;;;;1.42;0.88;;;9.90;99.90;;;;;;4991330;28;20010;-80
2023/11/03 00:15:29;;;;;;;3.70;1.23;;;9.90;99.90;;;;;;4991688;28;20034;-82
2023/11/03 00:17:56;;;;;;;3.22;1.20;;;9.90;99.90;;;;;;4988063;28;20018;-80
2023/11/03 00:20:22;;;;;;;1.23;0.68;;;9.90;99.90;;;;;;4987415;28;20141;-80
2023/11/03 00:22:48;;;;;;;2.25;1.00;;;9.90;99.90;;;;;;4987138;28;20145;-80
2023/11/03 00:25:14;;;;;;;3.67;1.05;;;9.90;99.90;;;;;;4989396;28;20034;-80
2023/11/03 00:27:42;;;;;;;3.75;1.30;;;9.90;99.90;;;;;;4991199;28;20033;-81
2023/11/03 00:30:09;;;;;;;2.40;1.00;;;9.90;99.90;;;;;;4988151;28;20041;-79
2023/11/03 00:32:35;;;;;;;1.25;0.73;;;9.90;99.90;;;;;;4994041;28;20030;-81
2023/11/03 00:35:01;;;;;;;5.72;1.33;;;9.90;99.90;;;;;;4983358;28;20031;-81
2023/11/03 00:37:27;;;;;;;2.60;0.90;;;9.90;99.90;;;;;;4993141;28;20034;-81
2023/11/03 00:39:53;;;;;;;1.90;0.70;;;9.90;99.90;;;;;;4984544;28;20030;-81
2023/11/03 00:42:19;;;;;;;1.17;0.77;;;9.90;99.90;;;;;;4990546;28;20033;-81
2023/11/03 00:44:44;;;;;;;5.70;0.88;;;9.90;99.90;;;;;;4990181;28;20025;-81
2023/11/03 00:47:10;;;;;;;2.10;0.70;;;9.90;99.90;;;;;;4993016;28;20371;-81
2023/11/03 00:49:39;;;;;;;4.70;1.00;;;9.90;99.90;;;;;;4989015;28;20041;-79
2023/11/03 00:52:08;;;;;;;3.42;1.00;;;9.90;99.90;;;;;;4986523;28;20026;-80
2023/11/03 00:54:35;;;;;;;4.40;0.98;;;9.90;99.90;;;;;;4988330;28;20129;-80
2023/11/03 00:57:00;;;;;;;3.28;1.10;;;9.90;99.90;;;;;;4991659;28;20025;-80
2023/11/03 00:59:27;;;;;;;1.65;0.85;;;9.90;99.90;;;;;;4990445;28;20044;-80
2023/11/03 01:01:52;;;;;;;1.48;1.27;;;9.90;99.90;;;;;;4991008;28;20073;-80
2023/11/03 01:04:18;;;;;;;1.55;0.75;;;9.90;99.90;;;;;;4988696;28;20034;-81
2023/11/03 01:06:43;;;;;;;1.45;0.90;;;9.90;99.90;;;;;;4990817;28;20514;-80
2023/11/03 01:09:09;;;;;;;2.15;1.00;;;9.90;99.90;;;;;;4987516;28;20026;-80
2023/11/03 01:11:36;;;;;;;2.15;1.10;;;9.90;99.90;;;;;;4988456;28;20045;-80
2023/11/03 01:14:04;;;;;;;5.68;0.80;;;9.80;99.90;;;;;;4989054;28;20490;-80
2023/11/03 01:16:30;;;;;;;2.78;0.70;;;9.80;99.90;;;;;;4987925;28;20026;-80
2023/11/03 01:18:56;;;;;;;3.75;1.08;;;9.80;99.90;;;;;;4990846;28;20037;-80
2023/11/03 01:21:22;;;;;;;3.20;1.10;;;9.80;99.90;;;;;;4986801;28;20023;-80
2023/11/03 01:23:48;;;;;;;3.20;0.80;;;9.80;99.90;;;;;;4987452;28;20069;-81
2023/11/03 01:26:15;;;;;;;2.17;0.93;;;9.80;99.90;;;;;;4987302;28;20049;-80
2023/11/03 01:28:41;;;;;;;3.90;1.02;;;9.70;99.90;;;;;;4985645;28;20195;-80
2023/11/03 01:31:08;;;;;;;2.08;0.73;;;9.70;99.90;;;;;;4986439;28;20030;-80
2023/11/03 01:33:40;;;;;;;2.28;1.13;;;9.70;99.90;;;;;;4985214;28;20580;-81
2023/11/03 01:36:06;;;;;;;2.17;1.23;;;9.70;99.90;;;;;;4987676;28;20030;-80
2023/11/03 01:38:32;;;;;;;2.30;0.70;;;9.70;99.90;;;;;;4982055;28;20034;-80
2023/11/03 01:41:05;;;;;;;1.77;1.00;;;9.70;99.90;;;;;;4987918;28;20030;-81
2023/11/03 01:43:32;;;;;;;2.65;0.85;;;9.70;99.90;;;;;;4988931;28;20034;-80
2023/11/03 01:45:58;;;;;;;1.27;0.88;;;9.60;99.90;;;;;;4990575;28;20022;-80
2023/11/03 01:48:26;;;;;;;1.50;0.93;;;9.60;99.90;;;;;;5000779;28;20038;-80
2023/11/03 01:50:53;;;;;;;3.75;0.93;;;9.60;99.90;;;;;;5003650;28;21150;-81
2023/11/03 01:53:19;;;;;;;3.45;0.95;;;9.60;99.90;;;;;;4994381;28;20041;-81
2023/11/03 01:55:45;;;;;;;4.75;1.10;;;9.50;99.90;;;;;;4990498;28;20030;-81
2023/11/03 01:58:11;;;;;;;3.25;0.90;;;9.50;99.90;;;;;;4997620;28;20515;-80
2023/11/03 02:00:37;;;;;;;2.60;0.80;;;9.50;99.90;;;;;;5006019;28;20030;-80
2023/11/03 02:03:03;;;;;;;2.75;0.80;;;9.40;99.90;;;;;;5002613;28;20025;-81
2023/11/03 02:05:28;;;;;;;2.97;0.75;;;9.40;99.90;;;;;;4991265;28;20032;-81
2023/11/03 02:07:54;;;;;;;3.40;1.08;;;9.40;99.90;;;;;;4991552;28;20027;-81
2023/11/03 02:10:20;;;;;;;3.17;0.77;;;9.40;99.90;;;;;;4988139;28;20037;-81
2023/11/03 02:12:46;;;;;;;1.73;1.00;;;9.30;99.90;;;;;;4989457;28;20079;-81
2023/11/03 02:15:12;;;;;;;1.05;0.73;;;9.30;99.90;;;;;;4989271;28;20121;-80
2023/11/03 02:17:38;;;;;;;3.53;1.00;;;9.30;99.90;;;;;;4982453;28;20058;-80
2023/11/03 02:20:07;;;;;;;2.30;0.70;;;9.30;99.90;;;;;;4994257;28;20038;-81
2023/11/03 02:22:34;;;;;;;2.50;0.77;;;9.20;99.90;;;;;;4988647;28;20034;-80
2023/11/03 02:24:59;;;;;;;2.75;0.90;;;9.20;99.90;;;;;;4988612;28;20022;-80
2023/11/03 02:27:25;;;;;;;3.38;0.60;;;9.20;99.90;;;;;;4983569;28;20053;-80
2023/11/03 02:29:51;;;;;;;3.70;1.05;;;9.20;99.90;;;;;;4982683;28;20050;-81
2023/11/03 02:32:17;;;;;;;1.67;0.60;;;9.20;99.90;;;;;;4983721;28;20120;-81
2023/11/03 02:34:43;;;;;;;1.17;0.70;;;9.10;99.90;;;;;;4988207;28;20034;-80
2023/11/03 02:37:09;;;;;;;2.38;0.70;;;9.10;99.90;;;;;;4991483;28;20038;-80
2023/11/03 02:39:36;;;;;;;1.48;0.70;;;9.10;99.90;;;;;;4990735;28;20273;-81
2023/11/03 02:42:04;;;;;;;3.30;0.93;;;9.00;99.90;;;;;;4990507;28;20175;-80
2023/11/03 02:44:29;;;;;;;3.45;0.80;;;9.00;99.90;;;;;;4993928;28;20030;-81
2023/11/03 02:46:55;;;;;;;1.88;0.65;;;9.00;99.90;;;;;;4986981;28;20096;-81
2023/11/03 02:49:24;;;;;;;1.90;0.80;;;9.00;99.90;;;;;;4991529;28;20550;-81
2023/11/03 02:51:49;;;;;;;3.50;1.40;;;9.00;99.90;;;;;;4982770;28;20027;-81
2023/11/03 02:54:15;;;;;;;1.55;0.70;;;9.00;99.90;;;;;;4983290;28;20031;-80
2023/11/03 02:56:40;;;;;;;1.08;0.68;;;9.00;99.90;;;;;;4989465;28;20034;-80
2023/11/03 02:59:07;;;;;;;1.98;0.88;;;9.00;99.90;;;;;;4984089;28;20030;-81
2023/11/03 03:01:36;;;;;;;0.98;0.75;;;8.90;99.90;;;;;;4983921;28;20030;-79
2023/11/03 03:04:03;;;;;;;1.55;0.50;;;9.00;99.90;;;;;;4989677;28;20034;-80
2023/11/03 03:06:28;;;;;;;5.13;0.82;;;8.90;99.90;;;;;;4981331;28;20073;-79
2023/11/03 03:08:54;;;;;;;1.00;0.63;;;8.90;99.90;;;;;;4987230;28;20396;-80
2023/11/03 03:11:19;;;;;;;2.60;0.82;;;8.90;99.90;;;;;;4990324;28;20041;-80
2023/11/03 03:13:45;;;;;;;1.98;0.90;;;8.90;99.90;;;;;;4987895;28;20030;-80
2023/11/03 03:16:11;;;;;;;0.88;0.60;;;8.80;99.90;;;;;;4985446;28;20928;-80
2023/11/03 03:18:36;;;;;;;1.90;0.80;;;8.80;99.90;;;;;;4986577;28;20523;-81
2023/11/03 03:21:03;;;;;;;3.28;0.93;;;8.80;99.90;;;;;;4986634;28;20065;-80
2023/11/03 03:23:28;;;;;;;1.92;0.68;;;8.80;99.90;;;;;;4986915;28;20041;-80
2023/11/03 03:25:54;;;;;;;3.30;1.00;;;8.80;99.90;;;;;;4984681;28;20023;-79
2023/11/03 03:28:20;;;;;;;2.97;0.88;;;8.80;99.90;;;;;;4981676;28;20042;-79
2023/11/03 03:30:45;;;;;;;2.03;1.00;;;8.80;99.90;;;;;;4980628;28;20194;-80
2023/11/03 03:33:11;;;;;;;1.50;0.80;;;8.80;99.90;;;;;;4991193;28;20053;-80
2023/11/03 03:35:36;;;;;;;1.98;0.73;;;8.80;99.90;;;;;;4994845;28;20125;-82
2023/11/03 03:38:02;;;;;;;4.00;0.82;;;8.80;99.90;;;;;;4987872;28;20506;-80
2023/11/03 03:40:28;;;;;;;1.48;0.70;;;8.70;99.90;;;;;;4986785;28;20505;-80
2023/11/03 03:42:53;;;;;;;1.45;0.70;;;8.70;99.90;;;;;;4986238;28;20041;-80
2023/11/03 03:45:19;;;;;;;4.65;1.00;;;8.70;99.90;;;;;;4989393;28;20056;-80
2023/11/03 03:47:44;;;;;;;2.35;1.15;;;8.80;99.90;;;;;;4985160;28;20535;-79
2023/11/03 03:50:10;;;;;;;1.27;0.93;;;8.80;99.90;;;;;;4992651;28;20521;-80
2023/11/03 03:52:35;;;;;;;3.85;0.90;;;8.70;99.90;;;;;;4986968;28;20077;-80
2023/11/03 03:55:02;;;;;;;1.88;0.80;;;8.70;99.90;;;;;;4989038;28;20030;-79
2023/11/03 03:57:27;;;;;;;0.80;0.60;;;8.70;99.90;;;;;;4992800;28;20096;-80
2023/11/03 03:59:53;;;;;;;2.65;0.95;;;8.70;99.90;;;;;;4990686;28;21014;-81
2023/11/03 04:02:18;;;;;;;2.45;0.90;;;8.70;99.90;;;;;;4991536;28;20031;-80
2023/11/03 04:04:44;;;;;;;1.73;0.60;;;8.70;99.90;;;;;;4997656;28;20022;-79
2023/11/03 04:07:10;;;;;;;1.52;1.02;;;8.70;99.90;;;;;;4989709;28;20347;-80
2023/11/03 04:09:38;;;;;;;3.80;1.38;;;8.70;99.90;;;;;;4993061;28;20023;-80
2023/11/03 04:12:04;;;;;;;3.55;0.90;;;8.70;99.90;;;;;;4994300;28;20058;-80
2023/11/03 04:14:29;;;;;;;5.22;1.15;;;8.70;99.90;;;;;;4986003;28;20070;-80
2023/11/03 04:16:55;;;;;;;2.13;0.85;;;8.70;99.90;;;;;;4992978;28;20147;-80
2023/11/03 04:19:20;;;;;;;0.80;0.65;;;8.60;99.90;;;;;;4991352;28;20088;-80
2023/11/03 04:21:46;;;;;;;2.80;1.10;;;8.60;99.90;;;;;;4988167;28;20077;-80
2023/11/03 04:24:11;;;;;;;5.55;1.00;;;8.50;99.90;;;;;;4987355;28;20088;-80
2023/11/03 04:26:39;;;;;;;4.75;1.08;;;8.50;99.90;;;;;;4988117;28;20030;-79
2023/11/03 04:29:04;;;;;;;3.50;0.95;;;8.50;99.90;;;;;;4984701;28;20035;-80
2023/11/03 04:31:30;;;;;;;5.43;1.52;;;8.40;99.90;;;;;;4988090;28;20031;-80
2023/11/03 04:33:55;;;;;;;4.72;1.27;;;8.50;99.90;;;;;;4987737;28;20038;-81
2023/11/03 04:36:21;;;;;;;1.10;0.82;;;8.40;99.90;;;;;;4987569;28;20030;-80
2023/11/03 04:38:47;;;;;;;4.22;1.00;;;8.40;99.90;;;;;;4993239;28;20026;-80
2023/11/03 04:41:12;;;;;;;4.95;0.95;;;8.40;99.90;;;;;;5005133;28;20030;-81
2023/11/03 04:43:40;;;;;;;2.83;0.82;;;8.40;99.90;;;;;;4996860;28;20037;-80
2023/11/03 04:46:08;;;;;;;1.75;1.08;;;8.40;99.90;;;;;;4997414;28;20042;-81
2023/11/03 04:48:33;;;;;;;1.98;0.73;;;8.30;99.90;;;;;;4990364;28;20053;-80
2023/11/03 04:50:59;;;;;;;4.03;1.00;;;8.40;99.90;;;;;;4987661;28;20497;-80
2023/11/03 04:53:25;;;;;;;1.67;1.02;;;8.30;99.90;;;;;;4992328;28;20045;-81
2023/11/03 04:55:50;;;;;;;3.72;0.75;;;8.40;99.90;;;;;;4995079;28;20490;-81
2023/11/03 04:58:17;;;;;;;2.67;0.70;;;8.30;99.90;;;;;;4992916;28;20606;-81
2023/11/03 05:00:45;;;;;;;2.83;1.20;;;8.30;99.90;;;;;;4991595;28;20046;-81
2023/11/03 05:03:11;;;;;;;2.45;1.10;;;8.30;99.90;;;;;;4989772;28;20116;-81
2023/11/03 05:05:37;;;;;;;1.08;0.68;;;8.30;99.90;;;;;;4991464;28;20509;-80
2023/11/03 05:08:02;;;;;;;2.45;0.93;;;8.30;99.90;;;;;;4990751;28;20022;-80
2023/11/03 05:10:28;;;;;;;2.35;1.15;;;8.30;99.90;;;;;;4987102;28;20038;-79
2023/11/03 05:12:54;;;;;;;5.22;1.40;;;8.30;99.90;;;;;;4996753;28;20022;-80
2023/11/03 05:15:19;;;;;;;1.55;0.82;;;8.30;99.90;;;;;;4989412;28;20038;-81
2023/11/03 05:17:46;;;;;;;4.65;1.00;;;8.20;99.90;;;;;;4992875;28;20030;-80
2023/11/03 05:20:12;;;;;;;2.38;0.93;;;8.20;99.90;;;;;;4991362;28;20038;-81
2023/11/03 05:22:37;;;;;;;3.95;1.20;;;8.20;99.90;;;;;;4993155;28;20049;-79
2023/11/03 05:25:03;;;;;;;3.22;0.98;;;8.30;99.90;;;;;;4992665;28;20388;-79
2023/11/03 05:27:29;;;;;;;3.13;1.00;;;8.30;99.90;;;;;;5001881;28;20036;-79
2023/11/03 05:29:54;;;;;;;5.30;1.25;;;8.40;99.90;;;;;;5004067;28;20036;-81
2023/11/03 05:32:20;;;;;;;7.75;0.90;;;8.40;99.90;;;;;;4999470;28;20030;-81
2023/11/03 05:34:45;;;;;;;4.00;1.13;;;8.40;99.90;;;;;;4995736;28;20036;-81
2023/11/03 05:37:11;;;;;;;5.25;1.40;;;8.50;99.90;;;;;;4995956;28;20025;-81
2023/11/03 05:39:37;;;;;;;1.65;1.17;;;8.40;99.90;;;;;;4993350;28;20106;-81
2023/11/03 05:42:04;;;;;;;3.08;1.35;;;8.40;99.90;;;;;;4999415;28;20029;-80
2023/11/03 05:44:30;;;;;;;2.50;1.25;;;8.50;99.90;;;;;;4991197;28;20053;-80
2023/11/03 05:46:56;;;;;;;4.40;0.93;;;8.50;99.90;;;;;;4996185;28;20117;-81
2023/11/03 05:49:22;;;;;;;5.22;1.38;;;8.50;99.90;;;;;;4988191;28;20521;-81
2023/11/03 05:51:49;;;;;;;1.25;0.90;;;8.50;99.90;;;;;;4980260;28;20510;-80
2023/11/03 05:54:15;;;;;;;3.03;1.05;;;8.50;99.90;;;;;;4986936;28;20037;-81
2023/11/03 05:56:41;;;;;;;5.10;1.13;;;8.50;99.90;;;;;;4984935;28;20138;-81
2023/11/03 05:59:06;;;;;;;3.53;1.17;;;8.50;99.90;;;;;;4983425;28;20550;-81
2023/11/03 06:01:33;;;;;;;3.45;1.13;;;8.50;99.90;;;;;;4988581;28;20021;-81
2023/11/03 06:04:02;;;;;;;5.25;0.85;;;8.40;99.90;;;;;;4978508;28;20022;-81
2023/11/03 06:06:28;;;;;;;3.55;0.68;;;8.40;99.90;;;;;;4983295;28;20478;-80
2023/11/03 06:08:55;;;;;;;1.38;0.70;;;8.50;99.90;;;;;;4977399;28;20113;-80
2023/11/03 06:11:21;;;;;;;2.15;1.00;;;8.40;99.90;;;;;;4983096;28;20049;-81
2023/11/03 06:13:47;;;;;;;4.38;1.48;;;8.50;99.90;;;;;;4978679;28;20077;-80
2023/11/03 06:16:13;;;;;;;3.83;0.90;;;8.50;99.90;;;;;;4983599;28;20038;-80
2023/11/03 06:18:40;;;;;;;4.63;1.45;;;8.50;99.90;;;;;;4982163;28;20054;-80
2023/11/03 06:21:06;;;;;;;1.85;1.13;;;8.40;99.90;;;;;;4983869;28;20006;-80
2023/11/03 06:23:32;;;;;;;3.92;1.15;;;8.40;99.90;;;;;;4988129;28;20563;-81
2023/11/03 06:25:57;;;;;;;2.67;0.82;;;8.40;99.90;;;;;;4981547;28;20034;-80
2023/11/03 06:28:23;;;;;;;1.42;1.17;;;8.40;99.90;;;;;;4980670;28;20129;-80
2023/11/03 06:30:49;;;;;;;2.67;1.10;;;8.50;99.90;;;;;;4979527;28;20038;-80
2023/11/03 06:33:15;;;;;;;2.65;1.13;;;8.50;99.90;;;;;;4980793;28;20014;-80
2023/11/03 06:35:41;;;;;;;1.73;0.98;;;8.50;99.90;;;;;;4983402;28;20019;-80
2023/11/03 06:38:06;;;;;;;3.85;1.33;;;8.60;99.90;;;;;;4985254;28;20014;-80
2023/11/03 06:40:32;;;;;;;4.53;1.33;;;8.60;99.90;;;;;;4978868;28;20055;-80
2023/11/03 06:42:58;;;;;;;5.40;1.67;;;8.60;99.90;;;;;;4983824;28;20023;-81
2023/11/03 06:45:24;;;;;;;4.15;0.70;;;8.70;99.90;;;;;;4982657;28;20030;-80
2023/11/03 06:47:49;;;;;;;5.80;0.80;;;8.70;99.90;;;;;;4988761;28;20423;-79
2023/11/03 06:50:15;;;;;;;4.80;1.23;;;8.70;99.90;;;;;;4983075;28;20023;-80
2023/11/03 06:52:41;;;;;;;2.50;1.42;;;8.70;99.90;;;;;;4980760;28;20019;-80
2023/11/03 06:55:08;;;;;;;3.13;0.93;;;8.80;99.90;;;;;;4983720;28;20106;-79
2023/11/03 06:57:34;;;;;;;4.20;1.25;;;8.80;99.90;;;;;;4983567;28;20034;-80
2023/11/03 07:00:00;;;;;;;3.45;1.23;;;8.80;99.90;;;;;;4986257;28;20490;-80
2023/11/03 07:02:25;;;;;;;2.30;1.08;;;8.80;99.90;;;;;;4983946;28;20080;-80
2023/11/03 07:04:52;;;;;;;4.90;1.38;;;8.80;99.90;;;;;;4984514;28;20025;-81
2023/11/03 07:07:18;;;;;;;3.25;1.30;;;8.80;99.90;;;;;;4988448;28;20019;-80
2023/11/03 07:09:43;;;;;;;3.42;0.77;;;8.80;99.90;;;;;;4986116;28;20034;-80
2023/11/03 07:12:10;;;;;;;2.97;0.63;;;8.80;99.90;;;;;;4985897;28;20030;-82
2023/11/03 07:14:35;;;;;;;6.18;1.52;;;8.80;99.90;;;;;;4984147;28;20037;-81
2023/11/03 07:17:02;;;;;;;1.95;1.13;;;8.80;99.90;;;;;;4983050;28;20423;-80
2023/11/03 07:19:28;;;;;;;9.20;1.70;;;8.80;99.90;;;;;;4985438;28;20137;-81
2023/11/03 07:21:54;;;;;;;2.15;1.15;;;8.80;99.90;;;;;;4984406;28;20011;-82
2023/11/03 07:24:23;;;;;;;3.55;1.08;;;8.80;99.90;;;;;;4984309;28;20050;-81
2023/11/03 07:26:50;;;;;;;2.63;0.90;;;8.80;99.90;;;;;;4983746;28;20015;-81
2023/11/03 07:29:19;;;;;;;3.03;1.17;;;8.90;99.90;;;;;;4989955;28;20025;-81
2023/11/03 07:31:45;;;;;;;3.25;1.27;;;8.90;99.90;;;;;;4998047;28;20033;-82
2023/11/03 07:34:11;;;;;;;4.82;1.40;;;8.90;99.90;;;;;;5001265;28;20049;-81
2023/11/03 07:36:37;;;;;;;2.10;0.95;;;8.90;99.90;;;;;;4987110;28;20430;-81
2023/11/03 07:39:06;;;;;;;4.28;1.30;;;8.90;99.90;;;;;;4986170;28;20062;-81
2023/11/03 07:41:33;;;;;;;3.35;1.08;;;9.00;99.90;;;;;;4988030;28;20470;-80
2023/11/03 07:43:59;;;;;;;4.10;1.23;;;9.00;99.90;;;;;;4983098;28;20049;-81
2023/11/03 07:46:24;;;;;;;2.33;1.10;;;9.00;99.90;;;;;;4988940;28;20050;-81
2023/11/03 07:48:50;;;;;;;2.97;1.30;;;9.00;99.90;;;;;;4982642;28;20030;-80
2023/11/03 07:51:16;;;;;;;2.33;1.30;;;9.10;99.90;;;;;;4981541;28;20487;-80
2023/11/03 07:53:41;;;;;;;3.67;1.08;;;9.10;99.90;;;;;;4988556;28;20261;-82
2023/11/03 07:56:07;;;;;;;1.88;0.88;;;9.10;99.90;;;;;;4988160;28;20476;-79
2023/11/03 07:58:33;;;;;;;1.75;1.10;;;9.10;99.90;;;;;;4988646;28;20395;-82
2023/11/03 08:00:59;;;;;;;4.13;1.10;;;9.20;99.90;;;;;;4987773;28;20029;-81
2023/11/03 08:03:28;;;;;;;3.08;1.40;;;9.20;99.90;;;;;;4986728;28;20042;-79
2023/11/03 08:05:54;;;;;;;6.25;1.60;;;9.20;99.90;;;;;;4985925;28;20073;-80
2023/11/03 08:08:20;;;;;;;3.28;0.95;;;9.20;99.90;;;;;;4981720;28;20022;-80
2023/11/03 08:10:46;;;;;;;3.88;0.98;;;9.30;99.90;;;;;;4987663;28;20461;-80
2023/11/03 08:13:11;;;;;;;2.80;1.35;;;9.30;99.90;;;;;;4982140;28;20026;-80
2023/11/03 08:15:37;;;;;;;2.40;0.93;;;9.30;99.90;;;;;;4987100;28;20034;-80
2023/11/03 08:18:05;;;;;;;5.00;1.20;;;9.30;99.90;;;;;;4982923;28;20026;-79
2023/11/03 08:20:31;;;;;;;4.43;1.10;;;9.30;99.90;;;;;;4989979;28;20054;-80
2023/11/03 08:22:58;;;;;;;3.22;0.90;;;9.30;99.90;;;;;;4984893;28;20047;-80
2023/11/03 08:25:27;;;;;;;6.63;1.25;;;9.40;99.90;;;;;;4988562;28;20034;-80
2023/11/03 08:27:53;;;;;;;1.60;1.00;;;9.40;99.90;;;;;;4991761;28;20033;-80
2023/11/03 08:30:18;;;;;;;1.80;0.75;;;9.40;99.90;;;;;;4985887;28;20042;-80
2023/11/03 08:32:50;;;;;;;4.13;0.75;;;9.40;99.90;;;;;;4987663;28;20037;-79
2023/11/03 08:35:17;;;;;;;3.72;0.80;;;9.40;99.90;;;;;;4982542;28;20052;-80
2023/11/03 08:37:42;;;;;;;1.90;1.10;;;9.50;99.90;;;;;;4983809;28;20038;-80
2023/11/03 08:40:08;;;;;;;4.63;1.23;;;9.50;99.90;;;;;;4983099;28;20034;-80
2023/11/03 08:42:35;;;;;;;4.68;1.10;;;9.50;99.90;;;;;;4987055;28;20080;-80
2023/11/03 08:45:00;;;;;;;3.17;1.63;;;9.50;99.90;;;;;;4985806;28;20054;-79
2023/11/03 08:47:26;;;;;;;3.35;1.20;;;9.50;99.90;;;;;;4983948;28;20134;-80
2023/11/03 08:49:52;;;;;;;3.50;1.00;;;9.50;99.90;;;;;;4988627;28;20037;-80
2023/11/03 08:52:18;;;;;;;2.40;1.08;;;9.50;99.90;;;;;;4984490;28;20555;-80
2023/11/03 08:54:43;;;;;;;1.27;0.65;;;9.50;99.90;;;;;;4985397;28;20034;-80
2023/11/03 08:57:12;;;;;;;5.07;0.90;;;9.50;99.90;;;;;;4987580;28;20116;-79
2023/11/03 08:59:38;;;;;;;1.80;1.13;;;9.50;99.90;;;;;;4990514;28;20034;-80
2023/11/03 09:02:03;;;;;;;4.00;1.30;;;9.50;99.90;;;;;;4992645;28;20098;-80
2023/11/03 09:04:29;;;;;;;2.97;0.88;;;9.60;99.90;;;;;;4987168;28;20026;-80
2023/11/03 09:06:55;;;;;;;1.60;1.17;;;9.50;99.90;;;;;;4988910;28;20046;-81
2023/11/03 09:09:21;;;;;;;8.23;1.13;;;9.50;99.90;;;;;;4987986;28;20038;-80
2023/11/03 09:11:47;;;;;;;5.10;0.77;;;9.50;99.90;;;;;;4990672;28;20043;-80
2023/11/03 09:14:12;;;;;;;2.08;0.93;;;9.50;99.90;;;;;;4996658;28;20108;-80
2023/11/03 09:16:38;;;;;;;2.90;0.90;;;9.50;99.90;;;;;;4992449;28;20120;-79
2023/11/03 09:19:04;;;;;;;6.93;1.25;;;9.50;99.90;;;;;;4990431;28;20436;-80
2023/11/03 09:21:29;;;;;;;1.33;0.90;;;9.50;99.90;;;;;;4986912;28;20072;-80
2023/11/03 09:23:55;;;;;;;5.32;1.92;;;9.50;99.90;;;;;;4992453;28;20046;-80
2023/11/03 09:26:21;;;;;;;3.13;1.35;;;9.50;99.90;;;;;;4988690;28;20027;-80
2023/11/03 09:28:49;;;;;;;3.97;1.33;;;9.50;99.90;;;;;;4983166;28;20072;-80
2023/11/03 09:31:15;;;;;;;3.42;0.95;;;9.50;99.90;;;;;;4984272;28;20046;-80
2023/11/03 09:33:41;;;;;;;3.03;1.25;;;9.50;99.90;;;;;;4984100;28;20042;-80
2023/11/03 09:36:07;;;;;;;2.88;1.10;;;9.50;99.90;;;;;;4991311;28;20380;-81
2023/11/03 09:38:34;;;;;;;5.05;1.27;;;9.50;99.90;;;;;;4987630;28;20058;-79
2023/11/03 09:40:59;;;;;;;4.72;0.75;;;9.50;99.90;;;;;;4986083;28;20018;-79
2023/11/03 09:43:25;;;;;;;3.00;1.10;;;9.50;99.90;;;;;;4986842;28;20098;-81
2023/11/03 09:45:52;;;;;;;3.92;1.50;;;9.50;99.90;;;;;;4986608;28;20022;-81
2023/11/03 09:48:19;;;;;;;0.88;0.80;;;9.50;99.90;;;;;;4990069;28;20034;-79
2023/11/03 09:50:48;;;;;;;2.95;1.20;;;9.60;99.90;;;;;;4989007;28;20045;-80
2023/11/03 09:53:22;;;;;;;2.90;0.90;;;9.60;99.90;;;;;;4986233;28;20042;-80
2023/11/03 09:55:48;;;;;;;1.52;0.88;;;9.60;99.90;;;;;;4991894;28;20452;-80
2023/11/03 09:58:15;;;;;;;3.35;1.17;;;9.60;99.90;;;;;;4985332;28;20029;-80
2023/11/03 10:00:41;;;;;;;3.03;1.08;;;9.70;99.90;;;;;;4982833;28;20034;-80
2023/11/03 10:03:08;;;;;;;9.48;1.35;;;9.70;99.90;;;;;;4987053;28;20057;-81
2023/11/03 10:05:36;;;;;;;2.55;1.10;;;9.70;99.90;;;;;;4986055;28;20172;-80
2023/11/03 10:08:17;;;;;;;1.88;1.10;;;9.70;99.90;;;;;;4990501;28;20156;-80
2023/11/03 10:10:45;;;;;;;2.08;1.00;;;9.70;99.90;;;;;;4984123;28;20120;-80
2023/11/03 10:13:11;;;;;;;4.22;1.75;;;9.80;99.90;;;;;;4985427;28;20129;-79
2023/11/03 10:15:42;;;;;;;1.58;1.00;;;9.80;99.90;;;;;;4988809;28;20058;-79
2023/11/03 10:18:08;;;;;;;4.35;1.17;;;9.80;99.90;;;;;;4989261;28;20037;-80
2023/11/03 10:20:33;;;;;;;3.05;1.30;;;9.80;99.90;;;;;;4986305;28;20026;-80
2023/11/03 10:22:59;;;;;;;2.08;0.82;;;9.80;99.90;;;;;;4987584;28;20092;-80
2023/11/03 10:25:26;;;;;;;1.73;0.82;;;9.80;99.90;;;;;;4983910;28;20034;-80
2023/11/03 10:27:55;;;;;;;3.63;1.00;;;9.90;99.90;;;;;;4993963;28;20018;-80
2023/11/03 10:30:26;;;;;;;3.78;1.50;;;9.90;99.90;;;;;;4997373;28;20031;-79
2023/11/03 10:32:53;;;;;;;2.90;1.40;;;9.90;99.90;;;;;;4989708;28;20033;-80
2023/11/03 10:35:18;;;;;;;4.57;1.30;;;10.00;99.90;;;;;;4988536;28;20018;-80
2023/11/03 10:37:46;;;;;;;5.07;1.35;;;10.00;99.90;;;;;;4989524;28;20026;-81
2023/11/03 10:40:13;;;;;;;8.20;1.15;;;10.00;99.90;;;;;;4987467;28;20022;-81
2023/11/03 10:42:49;;;;;;;2.05;1.20;;;10.00;99.90;;;;;;4985798;28;20395;-80
2023/11/03 10:45:20;;;;;;;2.55;1.20;;;10.00;99.90;;;;;;4992322;28;20030;-81
2023/11/03 10:48:01;;;;;;;4.25;1.08;;;10.10;99.90;;;;;;4984667;28;20097;-80
2023/11/03 10:50:39;;;;;;;2.75;1.63;;;10.20;99.90;;;;;;4991083;28;20402;-80
2023/11/03 10:53:27;;;;;;;3.70;1.05;;;10.20;99.90;;;;;;4989114;28;20061;-80
2023/11/03 10:56:05;;;;;;;3.72;1.30;;;10.30;99.90;;;;;;4983909;28;20038;-80
2023/11/03 10:58:32;;;;;;;2.38;1.08;;;10.40;99.90;;;;;;4987953;28;20037;-80
2023/11/03 11:00:57;;;;;;;3.42;1.10;;;10.40;99.90;;;;;;4982932;28;20548;-80
2023/11/03 11:03:35;;;;;;;1.48;1.23;;;10.40;99.90;;;;;;4986374;28;20070;-81
2023/11/03 11:06:22;;;;;;;4.43;1.23;;;10.50;99.90;;;;;;4985530;28;20023;-80
2023/11/03 11:08:55;;;;;;;2.70;1.45;;;10.50;99.90;;;;;;4988250;28;20019;-81
2023/11/03 11:11:24;;;;;;;1.83;1.00;;;10.50;99.90;;;;;;4984757;28;20056;-80
2023/11/03 11:13:50;;;;;;;6.18;1.52;;;10.60;99.90;;;;;;4988433;28;20018;-81
2023/11/03 11:16:17;;;;;;;3.47;1.05;;;10.60;99.90;;;;;;4990700;28;20506;-81
2023/11/03 11:18:55;;;;;;;1.85;1.40;;;10.60;99.90;;;;;;4986472;28;20076;-80
2023/11/03 11:21:32;;;;;;;2.22;1.70;;;10.70;99.90;;;;;;4987182;28;20019;-80
2023/11/03 11:23:58;;;;;;;;;;;10.70;99.90;;;;;;4986501;28;20021;-80
2023/11/03 11:26:25;;;;;;;3.78;1.75;;;10.70;99.90;;;;;;4985444;28;19984;-80
2023/11/03 11:28:52;;;;;;;3.15;1.30;;;10.70;99.90;;;;;;4987716;28;20030;-80
2023/11/03 11:31:24;;;;;;;2.15;1.35;;;10.70;99.90;;;;;;4985266;28;20022;-80
2023/11/03 11:34:07;;;;;;;2.95;1.40;;;10.70;99.90;;;;;;4984950;28;20056;-80
2023/11/03 11:36:34;;;;;;;2.05;1.52;;;10.60;99.90;;;;;;4994579;28;20030;-79
2023/11/03 11:39:13;;;;;;;1.85;1.52;;;10.60;99.90;;;;;;4985000;28;20027;-80
2023/11/03 11:41:45;;;;;;;4.40;1.85;;;10.60;99.90;;;;;;4987769;28;20169;-80
2023/11/03 11:44:10;;;;;;;5.88;1.65;;;10.60;99.90;;;;;;4988696;28;20110;-81
2023/11/03 11:46:40;;;;;;;3.70;1.60;;;10.60;99.90;;;;;;4992807;28;20057;-81
2023/11/03 11:49:10;;;;;;;3.58;1.73;;;10.50;99.90;;;;;;4991682;28;20019;-80
2023/11/03 11:51:36;;;;;;;4.13;1.55;;;10.50;99.90;;;;;;4993064;28;20029;-80
2023/11/03 11:54:03;;;;;;;5.57;1.70;;;10.60;99.90;;;;;;4990851;28;20015;-80
2023/11/03 11:56:29;;;;;;;1.42;1.27;;;10.60;99.90;;;;;;4996297;28;20034;-80
2023/11/03 11:58:55;;;;;;;4.38;1.55;;;10.60;99.90;;;;;;4991868;28;20054;-81
2023/11/03 12:01:22;;;;;;;4.68;1.38;;;10.60;99.90;;;;;;4993363;28;20686;-80
2023/11/03 12:03:48;;;;;;;3.85;1.52;;;10.60;99.90;;;;;;4992402;28;20420;-81
2023/11/03 12:06:14;;;;;;;4.43;1.67;;;10.70;99.90;;;;;;4989258;28;20021;-81
2023/11/03 12:08:40;;;;;;;3.97;1.73;;;10.70;99.90;;;;;;4992132;28;20101;-80
2023/11/03 12:11:06;;;;;;;5.82;1.58;;;10.70;99.90;;;;;;4991887;28;20019;-80
2023/11/03 12:13:33;;;;;;;2.38;1.48;;;10.70;99.90;;;;;;4990341;28;20582;-80
2023/11/03 12:15:59;;;;;;;4.13;1.90;;;10.70;99.90;;;;;;4992515;28;20081;-80
2023/11/03 12:18:25;;;;;;;3.63;1.38;;;10.70;99.90;;;;;;4996493;28;20026;-80
2023/11/03 12:21:03;;;;;;;2.72;1.10;;;10.70;99.90;;;;;;4994713;28;20084;-80
2023/11/03 12:23:30;;;;;;;3.97;1.33;;;10.70;99.90;;;;;;4991022;28;20022;-80
2023/11/03 12:26:01;;;;;;;5.03;1.10;;;10.70;99.90;;;;;;4994300;28;20022;-80
2023/11/03 12:28:30;;;;;;;3.47;1.45;;;10.70;99.90;;;;;;4992364;28;20092;-80
2023/11/03 12:31:04;;;;;;;2.10;1.27;;;10.70;99.90;;;;;;4991626;28;20031;-81
2023/11/03 12:33:30;;;;;;;4.53;1.60;;;10.80;99.90;;;;;;4995378;28;20092;-80
2023/11/03 12:35:56;;;;;;;3.53;1.25;;;10.70;99.90;;;;;;4992801;28;20111;-80
2023/11/03 12:38:21;;;;;;;4.05;1.33;;;10.70;99.90;;;;;;4999806;28;20061;-80
2023/11/03 12:40:47;;;;;;;2.15;1.48;;;10.70;99.90;;;;;;4991113;28;20026;-80
2023/11/03 12:43:15;;;;;;;2.33;1.25;;;10.80;99.90;;;;;;4991045;28;20046;-81
2023/11/03 12:45:47;;;;;;;2.35;1.40;;;10.70;99.90;;;;;;4992701;28;20030;-81
2023/11/03 12:48:24;;;;;;;3.00;1.20;;;10.70;99.90;;;;;;4999086;28;20018;-79
2023/11/03 12:50:57;;;;;;;9.25;2.33;;;10.60;99.90;;;;;;4987412;28;20034;-80
2023/11/03 12:53:24;;;;;;;3.58;1.50;;;10.60;99.90;;;;;;4991481;28;20030;-80